Time;durP1;ratioP1;P1;durP2;ratioP2;P2;SDS_P1;SDS_P2;PMS_P1;PMS_P2;Temp;Humidity;BMP_temperature;BMP_pressure;BME280_temperature;BME280_humidity;BME280_pressure;Samples;Min_cycle;Max_cycle;Signal;HPM_P1;HPM_P2
2023/10/09 00:02:06;;;;;;;10.85;7.53;;;;;;;26.61;40.97;97247.72;6125508;23;20001;-25
2023/10/09 00:04:31;;;;;;;10.77;6.95;;;;;;;26.58;41.08;97249.47;6125769;23;20082;-25
2023/10/09 00:06:59;;;;;;;10.02;7.38;;;;;;;26.44;40.84;97245.78;6099904;23;20029;-25
2023/10/09 00:11:56;;;;;;;12.80;7.90;;;;;;;26.57;40.29;97241.69;6127794;23;20013;-25
2023/10/09 00:14:30;;;;;;;10.37;6.80;;;;;;;26.47;40.88;97249.53;6127736;23;20021;-25
2023/10/09 00:19:59;;;;;;;12.40;8.68;;;;;;;26.39;41.74;97241.00;6114852;23;20084;-25
2023/10/09 00:25:09;;;;;;;13.27;7.82;;;;;;;26.55;40.93;97244.22;6128217;23;20006;-25
2023/10/09 00:27:36;;;;;;;10.57;6.80;;;;;;;26.59;40.81;97239.13;6127318;23;20014;-25
2023/10/09 00:30:03;;;;;;;17.65;8.00;;;;;;;26.65;41.36;97235.03;6127368;23;20002;-25
2023/10/09 00:32:32;;;;;;;10.32;7.50;;;;;;;26.48;41.36;97240.69;6127213;23;20002;-25
2023/10/09 00:35:13;;;;;;;10.13;7.55;;;;;;;26.49;41.63;97244.22;6127262;23;20420;-25
2023/10/09 00:37:39;;;;;;;8.85;7.07;;;;;;;26.48;41.17;97239.94;6127122;23;20022;-25
2023/10/09 00:40:22;;;;;;;8.70;7.38;;;;;;;26.49;41.18;97247.00;6127302;23;20006;-25
2023/10/09 00:42:48;;;;;;;11.07;7.97;;;;;;;26.71;41.03;97246.88;6127038;23;20061;-25
2023/10/09 00:45:24;;;;;;;12.50;7.18;;;;;;;26.50;41.04;97234.63;6126994;23;20006;-25
2023/10/09 00:47:51;;;;;;;9.32;7.60;;;;;;;26.55;41.22;97238.66;6127106;23;20328;-25
2023/10/09 00:52:50;;;;;;;10.70;7.60;;;;;;;26.62;40.38;97241.63;6127203;23;20056;-24
2023/10/09 00:55:27;;;;;;;9.80;7.53;;;;;;;26.55;40.62;97242.19;6127120;23;20002;-25
2023/10/09 00:57:59;;;;;;;11.32;7.53;;;;;;;26.68;40.32;97236.06;6126996;23;20380;-25
2023/10/09 01:00:47;;;;;;;8.75;7.55;;;;;;;26.53;40.44;97236.38;6127062;23;20492;-25
2023/10/09 01:05:56;;;;;;;9.23;7.22;;;;;;;26.54;40.92;97229.53;6127486;23;20006;-25
2023/10/09 01:08:30;;;;;;;8.63;7.03;;;;;;;26.45;40.69;97235.41;6126939;23;20005;-25
2023/10/09 01:10:58;;;;;;;10.63;8.02;;;;;;;26.45;40.60;97235.41;6126998;23;20006;-25
2023/10/09 01:13:38;;;;;;;10.10;7.57;;;;;;;26.69;40.42;97229.97;6127192;23;20049;-24
2023/10/09 01:16:16;;;;;;;11.18;7.47;;;;;;;26.55;40.83;97227.53;6126912;23;20057;-25
2023/10/09 01:18:44;;;;;;;11.95;7.85;;;;;;;26.45;40.74;97221.50;6126842;23;20057;-25
2023/10/09 01:21:14;;;;;;;9.27;7.28;;;;;;;26.62;40.61;97230.50;6126681;23;20009;-25
2023/10/09 01:26:44;;;;;;;9.65;7.43;;;;;;;26.40;40.56;97220.25;6131234;23;20080;-25
2023/10/09 01:29:14;;;;;;;11.27;7.55;;;;;;;26.54;40.55;97223.97;6126829;23;20005;-25
2023/10/09 01:32:16;;;;;;;11.27;7.72;;;;;;;26.44;41.22;97217.22;6126767;23;20065;-25
2023/10/09 01:34:44;;;;;;;;;;;;;;;26.26;41.10;97217.78;6122729;23;20060;-25
2023/10/09 01:37:17;;;;;;;11.35;7.40;;;;;;;26.13;41.76;97215.56;6117919;23;19924;-25
2023/10/09 01:39:42;;;;;;;9.82;7.65;;;;;;;26.09;41.71;97215.06;6126542;23;20029;-25
2023/10/09 01:42:10;;;;;;;12.30;7.78;;;;;;;26.34;41.20;97208.41;6126615;23;20009;-25
2023/10/09 01:44:35;;;;;;;11.45;7.55;;;;;;;26.30;40.86;97215.50;6126447;23;20006;-25
2023/10/09 01:47:07;;;;;;;12.65;8.07;;;;;;;26.12;41.08;97208.47;6126416;23;20009;-25
2023/10/09 01:49:43;;;;;;;10.05;7.10;;;;;;;26.22;40.97;97211.72;6127036;23;20057;-25
2023/10/09 01:52:15;;;;;;;12.65;7.85;;;;;;;26.07;41.06;97221.16;6126981;23;20010;-25
2023/10/09 01:54:46;;;;;;;11.05;7.32;;;;;;;26.06;41.31;97222.41;6126603;23;20353;-25
2023/10/09 01:57:12;;;;;;;12.13;7.55;;;;;;;25.97;41.24;97219.91;6126675;23;20312;-25
2023/10/09 01:59:49;;;;;;;10.57;7.10;;;;;;;26.08;41.37;97214.31;6126595;23;20068;-25
2023/10/09 02:02:27;;;;;;;9.45;7.35;;;;;;;26.19;40.89;97209.97;6126456;23;20033;-25
2023/10/09 02:05:10;;;;;;;10.30;7.40;;;;;;;26.05;40.94;97220.91;6126534;23;20073;-25
2023/10/09 02:07:52;;;;;;;10.68;7.47;;;;;;;25.92;41.40;97215.13;6126432;23;20005;-25
2023/10/09 02:12:58;;;;;;;8.85;7.25;;;;;;;25.97;41.33;97214.34;6132574;23;20006;-25
2023/10/09 02:15:40;;;;;;;10.35;7.43;;;;;;;25.91;41.42;97227.50;6126230;23;20083;-25
2023/10/09 02:21:12;;;;;;;10.93;7.80;;;;;;;25.96;41.72;97212.84;6127420;23;20005;-25
2023/10/09 02:26:19;;;;;;;12.88;7.60;;;;;;;26.07;41.55;97215.59;6132605;23;20050;-25
2023/10/09 02:28:58;;;;;;;9.07;7.13;;;;;;;25.98;41.21;97215.84;6126057;23;20416;-25
2023/10/09 02:31:26;;;;;;;10.82;7.70;;;;;;;25.87;41.64;97227.00;6125840;23;20002;-25
2023/10/09 02:33:54;;;;;;;12.05;8.05;;;;;;;26.06;41.56;97214.06;6126263;23;20005;-25
2023/10/09 02:36:20;;;;;;;14.15;7.63;;;;;;;26.07;41.39;97217.63;6126084;23;20018;-25
2023/10/09 02:38:48;;;;;;;9.80;7.07;;;;;;;26.19;41.60;97219.06;6126462;23;20072;-25
2023/10/09 02:41:20;;;;;;;11.13;7.57;;;;;;;26.25;41.12;97224.59;6126193;23;20057;-25
2023/10/09 02:43:47;;;;;;;12.68;7.57;;;;;;;26.24;41.56;97223.09;6125696;23;20432;-25
2023/10/09 02:46:18;;;;;;;9.30;8.30;;;;;;;26.09;41.97;97220.63;6126019;23;20428;-25
2023/10/09 02:48:52;;;;;;;9.32;8.05;;;;;;;26.04;42.29;97219.38;6125944;23;20309;-25
2023/10/09 02:53:56;;;;;;;10.38;7.43;;;;;;;26.15;41.79;97226.16;6127374;23;20317;-25
2023/10/09 02:56:36;;;;;;;10.70;7.95;;;;;;;26.15;41.94;97217.81;6126079;23;20080;-25
2023/10/09 02:59:06;;;;;;;9.90;7.65;;;;;;;26.19;41.74;97219.06;6125868;23;20107;-25
2023/10/09 03:01:34;;;;;;;12.80;7.65;;;;;;;26.24;41.60;97220.31;6126153;23;20009;-25
2023/10/09 03:04:02;;;;;;;9.57;7.47;;;;;;;26.13;41.79;97210.75;6125734;23;20006;-25
2023/10/09 03:06:33;;;;;;;9.10;7.43;;;;;;;26.23;41.42;97213.22;6126257;23;20008;-25
2023/10/09 03:09:16;;;;;;;10.25;7.70;;;;;;;26.27;41.84;97217.25;6125458;23;20072;-25
2023/10/09 03:11:53;;;;;;;9.80;7.28;;;;;;;26.16;41.61;97213.78;6125962;23;20440;-25
2023/10/09 03:14:26;;;;;;;10.68;7.75;;;;;;;26.11;42.48;97213.28;6125668;23;20155;-25
2023/10/09 03:16:52;;;;;;;10.07;7.25;;;;;;;26.08;42.51;97221.91;6126158;23;20029;-25
2023/10/09 03:19:17;;;;;;;11.85;7.93;;;;;;;26.17;42.08;97216.03;6125933;23;20026;-25
2023/10/09 03:21:43;;;;;;;12.20;7.95;;;;;;;26.22;42.29;97220.81;6126237;23;20356;-24
2023/10/09 03:24:11;;;;;;;10.00;7.70;;;;;;;26.14;42.17;97222.63;6125768;23;20336;-25
2023/10/09 03:26:37;;;;;;;10.85;7.38;;;;;;;26.21;41.72;97215.78;6125842;23;20006;-25
2023/10/09 03:29:06;;;;;;;11.15;7.97;;;;;;;26.10;42.31;97205.44;6125859;23;20085;-25
2023/10/09 03:31:36;;;;;;;10.82;8.10;;;;;;;26.09;42.82;97210.25;6125769;23;20085;-25
2023/10/09 03:34:02;;;;;;;13.65;8.02;;;;;;;26.04;42.82;97213.06;6100121;23;19998;-25
2023/10/09 03:36:29;;;;;;;9.38;7.68;;;;;;;25.97;42.65;97214.34;6125480;23;20102;-25
2023/10/09 03:38:57;;;;;;;10.88;7.93;;;;;;;26.22;42.18;97214.50;6126062;23;20006;-25
2023/10/09 03:41:26;;;;;;;9.40;7.30;;;;;;;26.05;42.81;97218.13;6126877;23;20080;-25
2023/10/09 03:43:53;;;;;;;11.38;7.80;;;;;;;26.12;41.92;97217.56;6127683;23;20006;-25
2023/10/09 03:46:21;;;;;;;12.70;7.68;;;;;;;25.99;42.85;97208.28;6127855;23;20010;-25
2023/10/09 03:48:56;;;;;;;9.77;7.43;;;;;;;26.00;42.65;97221.66;6127606;23;20006;-25
2023/10/09 03:51:21;;;;;;;9.65;7.10;;;;;;;25.99;42.28;97217.38;6128112;23;20005;-25
2023/10/09 03:53:50;;;;;;;10.63;7.60;;;;;;;25.95;42.33;97222.44;6127331;23;20073;-25
2023/10/09 03:56:17;;;;;;;10.00;7.40;;;;;;;26.00;42.43;97207.75;6127514;23;20420;-25
2023/10/09 03:58:49;;;;;;;10.27;7.35;;;;;;;26.09;42.23;97212.28;6127608;23;20085;-25
2023/10/09 04:04:00;;;;;;;10.82;8.32;;;;;;;26.11;42.22;97207.72;6129218;23;20309;-25
2023/10/09 04:06:32;;;;;;;8.77;7.32;;;;;;;26.36;41.61;97207.88;6127748;23;20006;-25
2023/10/09 04:09:29;;;;;;;13.77;7.25;;;;;;;26.04;41.16;97211.03;6127578;23;20057;-25
2023/10/09 04:11:56;;;;;;;9.40;7.28;;;;;;;26.22;40.83;97212.47;6127382;23;20029;-25
2023/10/09 04:14:32;;;;;;;9.27;6.53;;;;;;;26.03;41.66;97209.53;6126938;23;20002;-25
2023/10/09 04:17:06;;;;;;;9.55;6.95;;;;;;;25.89;41.67;97213.38;6127602;23;20006;-24
2023/10/09 04:19:39;;;;;;;10.63;7.57;;;;;;;25.93;41.65;97211.09;6127738;23;20002;-25
2023/10/09 04:22:09;;;;;;;;;;;;;;;25.95;41.54;97213.34;6127849;23;20002;-25
2023/10/09 04:24:44;;;;;;;13.20;7.05;;;;;;;26.04;41.47;97211.03;6127339;23;19913;-25
2023/10/09 04:27:10;;;;;;;11.20;7.28;;;;;;;26.04;41.10;97211.03;6127669;23;20010;-25
2023/10/09 04:29:38;;;;;;;9.57;7.18;;;;;;;26.13;41.00;97210.75;6127130;23;20013;-25
2023/10/09 04:32:07;;;;;;;9.70;7.22;;;;;;;26.13;41.14;97216.31;6127259;23;20002;-25
2023/10/09 04:34:48;;;;;;;11.68;7.78;;;;;;;26.13;41.25;97205.19;6127149;23;20005;-25
2023/10/09 04:39:46;;;;;;;12.95;7.57;;;;;;;25.91;41.37;97216.41;6127355;23;20483;-25
2023/10/09 04:45:19;;;;;;;13.15;8.20;;;;;;;26.12;41.62;97214.03;6131588;23;20345;-25
2023/10/09 04:48:06;;;;;;;10.00;7.28;;;;;;;26.19;41.52;97218.31;6126811;23;20068;-25
2023/10/09 04:53:22;;;;;;;11.07;7.70;;;;;;;26.18;41.72;97214.03;6126756;23;20006;-25
2023/10/09 04:55:55;;;;;;;12.77;7.88;;;;;;;26.10;41.93;97211.00;6126713;23;20077;-25
2023/10/09 04:58:27;;;;;;;12.02;7.80;;;;;;;26.17;41.33;97210.50;6127185;23;20360;-25
2023/10/09 05:03:56;;;;;;;10.35;7.70;;;;;;;26.22;41.32;97217.28;6127368;23;20010;-25
2023/10/09 05:06:20;;;;;;;11.80;7.50;;;;;;;26.19;41.54;97210.75;6124297;23;20012;-25
2023/10/09 05:08:48;;;;;;;11.20;7.47;;;;;;;26.16;41.65;97216.56;6127141;23;20010;-25
2023/10/09 05:14:11;;;;;;;13.57;7.90;;;;;;;26.04;41.55;97219.38;6126846;23;20491;-25
2023/10/09 05:16:41;;;;;;;9.07;7.55;;;;;;;26.13;41.49;97229.44;6101015;23;20384;-25
2023/10/09 05:19:28;;;;;;;;;;;;;;;25.89;41.63;97232.81;6127388;23;20491;-25
2023/10/09 05:21:58;;;;;;;11.63;7.70;;;;;;;25.80;41.98;97233.09;6126747;23;19915;-25
2023/10/09 05:24:26;;;;;;;13.82;7.15;;;;;;;25.91;41.35;97233.06;6126670;23;20141;-25
2023/10/09 05:26:52;;;;;;;11.93;7.82;;;;;;;25.86;41.55;97236.59;6127033;23;20037;-25
2023/10/09 05:29:48;;;;;;;10.90;7.07;;;;;;;25.90;41.44;97228.03;6126742;23;20001;-25
2023/10/09 05:37:34;;;;;;;9.85;6.65;;;;;;;25.95;39.78;97235.59;6127047;23;20018;-25
2023/10/09 05:42:59;;;;;;;11.85;6.93;;;;;;;25.85;40.28;97240.66;6126863;23;20427;-25
2023/10/09 05:47:57;;;;;;;12.75;7.55;;;;;;;25.82;40.93;97243.72;6127279;23;20009;-25
2023/10/09 05:53:04;;;;;;;11.57;7.40;;;;;;;25.90;40.84;97253.78;6126988;23;20432;-25
2023/10/09 06:02:27;;;;;;;14.25;7.85;;;;;;;26.08;41.65;97253.25;6126370;23;20080;-24
2023/10/09 06:04:12;;;;;;;11.05;7.38;;;;;;;26.02;41.36;97263.59;6126130;23;20038;-25
2023/10/09 06:06:44;;;;;;;9.90;7.78;;;;;;;25.99;41.63;97255.53;6126863;23;20435;-25
2023/10/09 06:09:34;;;;;;;;;;;;;;;25.91;42.14;97263.63;6126815;23;20002;-25
2023/10/09 06:12:32;;;;;;;10.43;6.93;;;;;;;26.07;41.66;97262.84;6126228;23;19909;-25
2023/10/09 06:19:44;;;;;;;12.10;7.75;;;;;;;25.93;41.77;97268.69;6132038;23;20365;-25
2023/10/09 06:24:54;;;;;;;10.80;7.70;;;;;;;25.83;42.16;97268.22;6126176;23;20012;-25
2023/10/09 06:32:49;;;;;;;8.68;7.28;;;;;;;25.97;42.54;97283.06;6133092;23;20010;-25
2023/10/09 06:35:33;;;;;;;9.73;8.10;;;;;;;26.12;42.92;97281.50;6100199;23;19998;-25
2023/10/09 06:43:17;;;;;;;11.80;8.55;;;;;;;26.16;42.88;97288.84;6131663;23;20048;-25
2023/10/09 06:45:45;;;;;;;15.48;8.38;;;;;;;26.23;42.67;97294.63;6125871;23;20002;-25
2023/10/09 06:48:55;;;;;;;19.48;9.15;;;;;;;26.24;42.89;97293.34;6126150;23;20002;-25
2023/10/09 06:59:24;;;;;;;12.73;8.20;;;;;;;26.05;43.45;97295.19;6066762;23;20459;-25
2023/10/09 07:07:01;;;;;;;16.15;8.43;;;;;;;25.78;44.57;97313.44;6126300;23;20016;-25
2023/10/09 07:09:42;;;;;;;18.08;8.27;;;;;;;25.88;44.21;97309.09;6126071;23;20009;-25
2023/10/09 07:12:14;;;;;;;14.45;7.95;;;;;;;26.12;44.07;97309.31;6125833;23;20009;-25
2023/10/09 07:17:21;;;;;;;11.27;8.05;;;;;;;26.00;44.44;97307.81;6127878;23;20313;-25
2023/10/09 07:25:40;;;;;;;14.00;8.77;;;;;;;26.00;45.73;97307.06;6128597;23;20044;-25
2023/10/09 07:27:44;;;;;;;12.32;8.15;;;;;;;26.04;45.86;97319.44;6107083;23;20014;-25
2023/10/09 07:32:54;;;;;;;15.52;9.27;;;;;;;26.19;44.42;97319.16;6133919;23;20450;-25
2023/10/09 07:38:09;;;;;;;14.30;8.80;;;;;;;26.17;44.71;97323.72;6127956;23;20069;-24
2023/10/09 07:43:45;;;;;;;14.32;9.45;;;;;;;26.19;44.33;97335.09;6127805;23;20391;-25
2023/10/09 07:46:32;;;;;;;10.98;8.82;;;;;;;26.36;44.24;97333.03;6127914;23;20379;-25
2023/10/09 07:49:09;;;;;;;10.65;7.35;;;;;;;26.23;44.29;97327.22;6127732;23;20328;-25
2023/10/09 07:51:38;;;;;;;17.67;8.43;;;;;;;26.00;45.16;97327.28;6127721;23;20009;-25
2023/10/09 07:54:07;;;;;;;12.98;7.45;;;;;;;26.06;45.21;97328.03;6127600;23;20464;-25
2023/10/09 07:56:41;;;;;;;17.73;8.50;;;;;;;26.14;45.07;97325.50;6127996;23;20088;-25
2023/10/09 07:59:11;;;;;;;16.70;8.18;;;;;;;25.81;45.66;97328.34;6127622;23;20077;-25
2023/10/09 08:02:01;;;;;;;15.00;8.57;;;;;;;26.07;44.67;97332.34;6127801;23;20005;-25
2023/10/09 08:07:25;;;;;;;12.60;8.55;;;;;;;26.16;44.70;97334.06;6127333;23;20392;-25
2023/10/09 08:15:53;;;;;;;15.05;7.95;;;;;;;26.33;44.13;97334.06;6130780;23;20483;-25
2023/10/09 08:18:03;;;;;;;11.77;8.00;;;;;;;26.32;44.14;97332.56;6120107;23;20014;-25
2023/10/09 08:23:28;;;;;;;11.38;7.35;;;;;;;26.46;43.65;97321.09;6127303;23;20758;-25
2023/10/09 08:26:13;;;;;;;11.57;7.25;;;;;;;26.42;43.51;97331.00;6127432;23;20006;-25
2023/10/09 08:28:42;;;;;;;10.75;7.70;;;;;;;26.58;43.30;97321.81;6126873;23;20009;-25
2023/10/09 08:31:45;;;;;;;13.07;7.18;;;;;;;26.37;43.89;97326.19;6127361;23;20476;-25
2023/10/09 08:34:23;;;;;;;13.55;7.18;;;;;;;26.61;43.26;97331.16;6127281;23;20028;-25
2023/10/09 08:36:52;;;;;;;10.32;7.65;;;;;;;26.74;42.72;97318.22;6101076;23;20515;-25
2023/10/09 08:39:25;;;;;;;12.38;7.57;;;;;;;26.48;42.94;97326.16;6127162;23;20013;-25
2023/10/09 08:41:53;;;;;;;;;;;;;;;26.64;42.69;97332.94;6128053;23;20009;-24
2023/10/09 08:44:25;;;;;;;12.30;7.45;;;;;;;26.53;42.33;97336.53;6127170;23;19912;-24
2023/10/09 08:46:51;;;;;;;10.30;7.22;;;;;;;26.58;42.35;97327.38;6127036;23;20042;-25
2023/10/09 08:49:17;;;;;;;9.27;7.25;;;;;;;26.72;42.17;97326.31;6127101;23;20002;-25
2023/10/09 08:51:46;;;;;;;12.27;7.55;;;;;;;26.80;42.13;97332.88;6126953;23;20012;-25
2023/10/09 08:54:14;;;;;;;11.48;7.13;;;;;;;26.67;41.68;97332.69;6127193;23;19998;-25
2023/10/09 08:56:49;;;;;;;10.82;7.13;;;;;;;26.82;41.82;97333.13;6127176;23;20010;-25
2023/10/09 08:59:18;;;;;;;12.23;7.38;;;;;;;26.71;42.00;97333.16;6127029;23;20037;-25
2023/10/09 09:01:44;;;;;;;9.80;7.88;;;;;;;26.79;41.91;97331.34;6127138;23;20002;-25
2023/10/09 09:04:10;;;;;;;11.60;7.70;;;;;;;26.71;42.12;97329.59;6126699;23;20010;-25
2023/10/09 09:06:38;;;;;;;10.40;7.65;;;;;;;26.72;42.21;97320.75;6127096;23;20028;-25
2023/10/09 09:09:14;;;;;;;9.88;7.45;;;;;;;26.73;41.38;97333.38;6126896;23;20336;-25
2023/10/09 09:11:49;;;;;;;11.45;7.32;;;;;;;26.83;41.21;97323.47;6127009;23;20065;-25
2023/10/09 09:14:18;;;;;;;13.77;7.25;;;;;;;26.78;41.52;97329.84;6126751;23;20053;-25
2023/10/09 09:16:48;;;;;;;10.80;6.90;;;;;;;26.81;41.35;97317.69;6127269;23;20782;-25
2023/10/09 09:19:17;;;;;;;11.77;7.50;;;;;;;26.81;41.11;97326.03;6126684;23;20005;-25
2023/10/09 09:21:59;;;;;;;13.07;6.97;;;;;;;26.80;41.20;97327.31;6126963;23;20024;-25
2023/10/09 09:27:09;;;;;;;10.38;6.68;;;;;;;26.81;41.54;97322.50;6127746;23;20010;-25
2023/10/09 09:29:37;;;;;;;12.98;7.10;;;;;;;26.92;41.08;97319.66;6126897;23;20005;-25
2023/10/09 09:32:20;;;;;;;12.00;7.38;;;;;;;26.88;41.21;97326.75;6126727;23;20005;-25
2023/10/09 09:34:57;;;;;;;10.15;6.95;;;;;;;26.89;41.11;97314.34;6127125;23;20006;-25
2023/10/09 09:38:04;;;;;;;9.77;7.28;;;;;;;26.81;41.37;97317.69;6126722;23;20104;-25
2023/10/09 09:40:31;;;;;;;13.18;6.82;;;;;;;26.93;40.79;97312.84;6122332;23;20033;-25
2023/10/09 09:43:05;;;;;;;14.13;7.18;;;;;;;26.85;41.26;97311.81;6126689;23;20117;-25
2023/10/09 09:45:38;;;;;;;12.00;7.95;;;;;;;27.01;40.88;97307.47;6126956;23;20006;-25
2023/10/09 09:48:06;;;;;;;;;;;;;;;27.05;40.40;97308.72;6127079;23;20009;-25
2023/10/09 09:50:33;;;;;;;19.70;8.60;;;;;;;27.06;40.42;97310.22;6126628;23;19904;-25
2023/10/09 09:52:59;;;;;;;11.32;7.38;;;;;;;26.99;40.30;97305.19;6126409;23;20006;-25
2023/10/09 09:55:33;;;;;;;11.80;7.43;;;;;;;27.00;40.89;97300.38;6126427;23;20029;-25
2023/10/09 09:57:59;;;;;;;14.52;8.52;;;;;;;27.03;40.57;97300.13;6126419;23;20002;-25
2023/10/09 10:00:42;;;;;;;15.88;8.82;;;;;;;26.98;40.29;97302.94;6126473;23;20305;-25
2023/10/09 10:03:14;;;;;;;11.43;7.72;;;;;;;27.12;39.92;97299.78;6126447;23;20069;-24
2023/10/09 10:05:46;;;;;;;14.95;8.00;;;;;;;27.15;39.66;97292.44;6126268;23;20013;-25
2023/10/09 10:08:19;;;;;;;16.30;8.07;;;;;;;27.09;39.82;97300.06;6126466;23;20006;-25
2023/10/09 10:10:52;;;;;;;13.35;7.35;;;;;;;27.13;39.98;97295.75;6126548;23;20006;-25
2023/10/09 10:13:25;;;;;;;11.73;6.78;;;;;;;27.20;39.84;97293.69;6100331;23;20017;-25
2023/10/09 10:16:20;;;;;;;11.50;6.55;;;;;;;27.10;39.65;97285.63;6126457;23;20053;-25
2023/10/09 10:21:48;;;;;;;14.50;7.03;;;;;;;27.16;39.53;97280.78;6125681;23;20006;-25
2023/10/09 10:24:29;;;;;;;12.55;6.18;;;;;;;27.20;38.54;97288.84;6126248;23;20002;-25
2023/10/09 10:27:09;;;;;;;9.30;6.47;;;;;;;27.26;38.58;97281.22;6126714;23;20032;-25
2023/10/09 10:29:38;;;;;;;11.30;5.70;;;;;;;27.22;37.53;97277.94;6125977;23;20014;-25
2023/10/09 10:32:08;;;;;;;13.57;5.55;;;;;;;27.16;37.74;97282.81;6100179;23;20010;-25
2023/10/09 10:35:06;;;;;;;8.75;5.30;;;;;;;27.24;37.71;97274.66;6126310;23;20084;-24
2023/10/09 10:37:50;;;;;;;8.82;5.32;;;;;;;27.24;37.08;97274.66;6125878;23;20047;-25
2023/10/09 10:40:46;;;;;;;7.53;4.75;;;;;;;27.23;36.94;97273.91;6100174;23;20002;-25
2023/10/09 10:43:32;;;;;;;8.13;5.05;;;;;;;27.25;37.16;97265.78;6126088;23;20440;-25
2023/10/09 10:46:13;;;;;;;10.15;5.07;;;;;;;27.30;36.65;97262.22;6126413;23;20037;-25
2023/10/09 10:48:39;;;;;;;8.93;5.20;;;;;;;27.24;36.55;97252.38;6126159;23;20160;-25
2023/10/09 10:51:05;;;;;;;12.75;5.53;;;;;;;27.30;36.52;97242.72;6126153;23;20374;-25
2023/10/09 10:53:49;;;;;;;9.82;5.13;;;;;;;27.34;36.33;97253.56;6126231;23;20409;-25
2023/10/09 11:01:50;;;;;;;15.05;5.10;;;;;;;27.30;36.53;97234.34;6126230;23;20029;-25
2023/10/09 11:04:24;;;;;;;9.15;4.80;;;;;;;27.33;35.98;97235.31;6125912;23;20002;-25
2023/10/09 11:06:51;;;;;;;12.00;5.13;;;;;;;27.28;35.91;97231.34;6126211;23;20013;-25
2023/10/09 11:09:23;;;;;;;9.23;5.25;;;;;;;27.36;35.70;97232.28;6125858;23;20025;-25
2023/10/09 11:11:50;;;;;;;8.50;5.13;;;;;;;27.39;35.40;97231.22;6126049;23;20002;-25
2023/10/09 11:14:17;;;;;;;13.77;4.57;;;;;;;27.31;36.13;97219.16;6099778;23;20008;-25
2023/10/09 11:16:47;;;;;;;7.22;4.57;;;;;;;27.39;35.98;97214.53;6126176;23;20082;-25
2023/10/09 11:24:35;;;;;;;7.82;4.32;;;;;;;27.39;35.97;97197.81;6126570;23;20018;-25
2023/10/09 11:27:08;;;;;;;8.75;5.35;;;;;;;27.46;35.36;97202.78;6126066;23;20006;-25
2023/10/09 11:32:22;;;;;;;9.70;5.25;;;;;;;27.40;35.73;97190.97;6128220;23;20010;-25
2023/10/09 11:35:08;;;;;;;7.10;4.63;;;;;;;27.48;35.40;97193.91;6126319;23;20002;-25
2023/10/09 11:37:42;;;;;;;10.93;5.13;;;;;;;27.42;35.12;97191.19;6125518;23;20022;-25
2023/10/09 11:40:48;;;;;;;8.55;4.75;;;;;;;27.49;35.12;97182.25;6126291;23;20129;-25
2023/10/09 11:43:14;;;;;;;9.25;4.97;;;;;;;27.52;34.70;97177.69;6125904;23;20424;-25
2023/10/09 11:45:39;;;;;;;11.85;5.30;;;;;;;27.51;35.17;97179.72;6125512;23;20049;-25
2023/10/09 11:49:15;;;;;;;13.45;5.30;;;;;;;27.53;35.44;97176.41;6125997;23;20067;-25
2023/10/09 11:51:19;;;;;;;9.60;5.22;;;;;;;27.51;34.56;97173.38;6121662;23;20060;-25
2023/10/09 11:54:08;;;;;;;12.10;4.32;;;;;;;27.46;34.71;97166.56;6125652;23;20006;-25
2023/10/09 11:56:32;;;;;;;16.42;4.03;;;;;;;27.50;33.67;97167.06;6125322;23;20037;-25
2023/10/09 11:58:58;;;;;;;9.77;3.70;;;;;;;27.52;32.64;97153.34;6125496;23;20001;-25
2023/10/09 12:01:25;;;;;;;6.55;3.55;;;;;;;27.48;33.14;97152.88;6126004;23;20065;-25
2023/10/09 12:03:51;;;;;;;6.15;3.33;;;;;;;27.43;32.68;97156.50;6127334;23;20002;-25
2023/10/09 12:06:22;;;;;;;7.38;3.45;;;;;;;27.44;32.81;97157.25;6127568;23;20013;-25
2023/10/09 12:08:48;;;;;;;7.68;3.78;;;;;;;27.48;32.13;97154.91;6128132;23;20006;-25
2023/10/09 12:11:14;;;;;;;9.02;3.45;;;;;;;27.41;32.28;97149.94;6127630;23;20012;-25
2023/10/09 12:13:42;;;;;;;6.93;3.35;;;;;;;27.44;31.40;97154.47;6127481;23;20006;-25
2023/10/09 12:16:11;;;;;;;6.95;3.08;;;;;;;27.48;31.60;97144.53;6127359;23;20089;-25
2023/10/09 12:18:39;;;;;;;6.95;3.13;;;;;;;27.45;31.42;97137.22;6127656;23;20080;-25
2023/10/09 12:21:06;;;;;;;8.15;2.92;;;;;;;27.45;31.21;97140.00;6127238;23;20002;-25
2023/10/09 12:23:37;;;;;;;7.35;2.75;;;;;;;27.43;30.94;97131.44;6101562;23;20425;-25
2023/10/09 12:26:04;;;;;;;6.63;2.78;;;;;;;27.45;30.65;97131.63;6127591;23;20005;-25
2023/10/09 12:28:29;;;;;;;7.97;2.90;;;;;;;27.43;30.63;97117.50;6127155;23;20010;-25
2023/10/09 12:31:01;;;;;;;8.90;3.13;;;;;;;27.40;30.42;97126.16;6127310;23;20380;-25
2023/10/09 12:33:28;;;;;;;6.50;2.95;;;;;;;27.47;29.99;97120.72;6127060;23;20013;-25
2023/10/09 12:35:59;;;;;;;12.38;3.38;;;;;;;27.43;30.64;97120.28;6127165;23;20177;-25
2023/10/09 12:38:31;;;;;;;5.53;3.20;;;;;;;27.42;30.42;97109.66;6126626;23;20089;-25
2023/10/09 12:41:20;;;;;;;7.00;3.33;;;;;;;27.57;30.38;97112.78;6127443;23;20073;-25
2023/10/09 12:43:48;;;;;;;6.32;3.65;;;;;;;27.46;31.26;97110.88;6127046;23;20001;-25
2023/10/09 12:46:16;;;;;;;7.88;3.10;;;;;;;27.44;30.65;97105.09;6127217;23;20013;-25
2023/10/09 12:48:46;;;;;;;7.00;3.70;;;;;;;27.58;31.20;97097.59;6126931;23;20010;-25
2023/10/09 12:51:16;;;;;;;9.00;3.30;;;;;;;27.50;30.26;97102.22;6128051;23;20305;-25
2023/10/09 12:53:45;;;;;;;7.85;3.35;;;;;;;27.52;30.75;97102.47;6127333;23;20012;-25
2023/10/09 12:56:12;;;;;;;9.15;3.63;;;;;;;27.62;30.76;97100.09;6101272;23;20356;-25
2023/10/09 12:58:38;;;;;;;7.45;4.40;;;;;;;27.47;31.91;97098.44;6127159;23;20009;-25
2023/10/09 13:01:11;;;;;;;9.32;4.60;;;;;;;27.48;32.12;97097.16;6126859;23;20002;-25
2023/10/09 13:03:38;;;;;;;9.05;4.10;;;;;;;27.46;31.85;97091.38;6126963;23;20002;-25
2023/10/09 13:06:10;;;;;;;9.02;3.92;;;;;;;27.54;32.08;97095.09;6126947;23;20006;-25
2023/10/09 13:08:36;;;;;;;6.47;3.83;;;;;;;27.59;31.94;97092.78;6101153;23;20340;-25
2023/10/09 13:11:10;;;;;;;11.07;3.60;;;;;;;27.56;31.74;97093.84;6126635;23;20009;-25
2023/10/09 13:13:39;;;;;;;10.60;4.13;;;;;;;27.61;32.07;97099.34;6126651;23;20014;-25
2023/10/09 13:16:06;;;;;;;6.47;4.40;;;;;;;27.59;32.61;97098.34;6126770;23;20001;-25
2023/10/09 13:18:33;;;;;;;7.45;4.10;;;;;;;27.58;32.75;97096.84;6127009;23;20085;-25
2023/10/09 13:21:03;;;;;;;6.50;4.22;;;;;;;27.67;32.54;97090.91;6126899;23;20432;-25
2023/10/09 13:23:38;;;;;;;8.02;4.15;;;;;;;27.61;32.48;97090.97;6126877;23;20001;-25
2023/10/09 13:26:08;;;;;;;8.38;4.20;;;;;;;27.61;31.93;97087.44;6127020;23;20006;-25
2023/10/09 13:28:37;;;;;;;10.25;4.32;;;;;;;27.65;33.01;97085.13;6127049;23;20009;-25
2023/10/09 13:31:04;;;;;;;8.52;4.18;;;;;;;27.63;32.04;97087.66;6126760;23;20002;-25
2023/10/09 13:33:36;;;;;;;7.05;4.30;;;;;;;27.54;32.31;97086.72;6126572;23;20009;-25
2023/10/09 13:36:02;;;;;;;9.75;4.68;;;;;;;27.63;32.44;97087.66;6126897;23;20400;-25
2023/10/09 13:38:27;;;;;;;13.30;5.25;;;;;;;27.65;33.14;97085.13;6126505;23;20006;-25
2023/10/09 13:41:01;;;;;;;6.55;4.65;;;;;;;27.56;34.40;97088.28;6127099;23;20022;-25
2023/10/09 13:43:28;;;;;;;6.63;4.95;;;;;;;27.54;34.26;97075.59;6126793;23;20013;-25
2023/10/09 13:45:56;;;;;;;9.27;4.32;;;;;;;27.62;34.40;97086.16;6126572;23;20013;-25
2023/10/09 13:48:23;;;;;;;14.10;5.38;;;;;;;27.57;34.64;97079.34;6126809;23;20010;-25
2023/10/09 13:50:57;;;;;;;12.40;4.82;;;;;;;27.66;35.15;97075.47;6126662;23;20332;-25
2023/10/09 13:53:26;;;;;;;10.55;4.90;;;;;;;27.64;35.24;97069.66;6126628;23;20006;-25
2023/10/09 13:55:53;;;;;;;8.77;5.40;;;;;;;27.62;35.72;97067.41;6126479;23;20375;-25
2023/10/09 13:58:20;;;;;;;11.55;5.32;;;;;;;27.66;35.99;97069.91;6126559;23;20006;-25
2023/10/09 14:00:47;;;;;;;8.73;5.53;;;;;;;27.63;36.05;97071.69;6126467;23;20010;-25
2023/10/09 14:03:13;;;;;;;11.35;5.18;;;;;;;27.60;36.07;97072.00;6126477;23;20002;-25
2023/10/09 14:05:51;;;;;;;12.88;5.68;;;;;;;27.59;36.63;97064.91;6126310;23;20049;-25
2023/10/09 14:08:19;;;;;;;14.20;5.78;;;;;;;27.61;36.75;97060.31;6126522;23;20033;-25
2023/10/09 14:10:48;;;;;;;9.20;5.30;;;;;;;27.54;36.59;97060.91;6126405;23;20313;-25
2023/10/09 14:13:14;;;;;;;9.32;5.13;;;;;;;27.67;36.69;97060.25;6126150;23;20333;-25
2023/10/09 14:15:41;;;;;;;9.60;5.45;;;;;;;27.67;37.19;97060.25;6126424;23;19998;-25